sensor_id;sensor_type;location;lat;lon;timestamp;P1;durP1;ratioP1;P2;durP2;ratioP2
76708;SDS011;74360;44.410;0.216;2024-02-28T00:05:27;7.00;;;2.10;;
76708;SDS011;74360;44.410;0.216;2024-02-28T00:10:59;10.40;;;2.20;;
76708;SDS011;74360;44.410;0.216;2024-02-28T00:16:31;7.80;;;1.93;;
76708;SDS011;74360;44.410;0.216;2024-02-28T00:22:04;6.13;;;1.80;;
76708;SDS011;74360;44.410;0.216;2024-02-28T00:33:10;7.73;;;1.87;;
76708;SDS011;74360;44.410;0.216;2024-02-28T00:38:43;8.33;;;1.80;;
76708;SDS011;74360;44.410;0.216;2024-02-28T00:44:16;8.00;;;2.10;;
76708;SDS011;74360;44.410;0.216;2024-02-28T00:49:48;7.67;;;2.00;;
76708;SDS011;74360;44.410;0.216;2024-02-28T00:55:19;9.50;;;2.50;;
76708;SDS011;74360;44.410;0.216;2024-02-28T01:00:53;5.93;;;2.10;;
76708;SDS011;74360;44.410;0.216;2024-02-28T01:06:25;6.20;;;1.90;;
76708;SDS011;74360;44.410;0.216;2024-02-28T01:11:57;9.73;;;2.10;;
76708;SDS011;74360;44.410;0.216;2024-02-28T01:17:30;5.93;;;1.80;;
76708;SDS011;74360;44.410;0.216;2024-02-28T01:23:02;7.73;;;1.80;;
76708;SDS011;74360;44.410;0.216;2024-02-28T01:28:35;7.20;;;2.10;;
76708;SDS011;74360;44.410;0.216;2024-02-28T01:34:07;10.23;;;2.07;;
76708;SDS011;74360;44.410;0.216;2024-02-28T01:39:40;9.53;;;1.83;;
76708;SDS011;74360;44.410;0.216;2024-02-28T01:45:14;8.87;;;1.80;;
76708;SDS011;74360;44.410;0.216;2024-02-28T01:50:45;8.67;;;2.33;;
76708;SDS011;74360;44.410;0.216;2024-02-28T01:56:19;10.47;;;2.13;;
76708;SDS011;74360;44.410;0.216;2024-02-28T02:01:51;7.67;;;2.20;;
76708;SDS011;74360;44.410;0.216;2024-02-28T02:07:25;7.83;;;1.70;;
76708;SDS011;74360;44.410;0.216;2024-02-28T02:13:03;11.70;;;2.20;;
76708;SDS011;74360;44.410;0.216;2024-02-28T02:18:30;6.17;;;1.63;;
76708;SDS011;74360;44.410;0.216;2024-02-28T02:24:04;9.87;;;2.17;;
76708;SDS011;74360;44.410;0.216;2024-02-28T02:29:35;8.70;;;2.23;;
76708;SDS011;74360;44.410;0.216;2024-02-28T02:35:09;6.53;;;1.97;;
76708;SDS011;74360;44.410;0.216;2024-02-28T02:40:42;8.17;;;1.87;;
76708;SDS011;74360;44.410;0.216;2024-02-28T02:46:16;7.10;;;1.80;;
76708;SDS011;74360;44.410;0.216;2024-02-28T02:51:48;8.10;;;1.87;;
76708;SDS011;74360;44.410;0.216;2024-02-28T02:57:21;5.30;;;1.77;;
76708;SDS011;74360;44.410;0.216;2024-02-28T03:02:53;6.93;;;1.90;;
76708;SDS011;74360;44.410;0.216;2024-02-28T03:08:25;9.57;;;2.33;;
76708;SDS011;74360;44.410;0.216;2024-02-28T03:13:58;6.80;;;2.13;;
76708;SDS011;74360;44.410;0.216;2024-02-28T03:19:31;5.33;;;1.73;;
76708;SDS011;74360;44.410;0.216;2024-02-28T03:25:03;7.23;;;2.63;;
76708;SDS011;74360;44.410;0.216;2024-02-28T03:30:36;7.57;;;2.17;;
76708;SDS011;74360;44.410;0.216;2024-02-28T03:36:09;7.30;;;1.90;;
76708;SDS011;74360;44.410;0.216;2024-02-28T03:41:42;11.40;;;2.10;;
76708;SDS011;74360;44.410;0.216;2024-02-28T03:47:15;9.27;;;2.23;;
76708;SDS011;74360;44.410;0.216;2024-02-28T03:52:47;10.63;;;2.60;;
76708;SDS011;74360;44.410;0.216;2024-02-28T03:58:18;7.63;;;2.50;;
76708;SDS011;74360;44.410;0.216;2024-02-28T04:03:53;9.30;;;2.43;;
76708;SDS011;74360;44.410;0.216;2024-02-28T04:09:26;15.43;;;2.50;;
76708;SDS011;74360;44.410;0.216;2024-02-28T04:14:59;6.23;;;2.57;;
76708;SDS011;74360;44.410;0.216;2024-02-28T04:20:30;10.50;;;2.70;;
76708;SDS011;74360;44.410;0.216;2024-02-28T04:26:04;6.63;;;2.37;;
76708;SDS011;74360;44.410;0.216;2024-02-28T04:31:34;6.23;;;3.00;;
76708;SDS011;74360;44.410;0.216;2024-02-28T04:37:08;8.77;;;2.90;;
76708;SDS011;74360;44.410;0.216;2024-02-28T04:42:41;10.33;;;2.50;;
76708;SDS011;74360;44.410;0.216;2024-02-28T04:48:14;16.87;;;3.90;;
76708;SDS011;74360;44.410;0.216;2024-02-28T04:53:46;7.30;;;2.70;;
76708;SDS011;74360;44.410;0.216;2024-02-28T04:59:20;5.87;;;2.53;;
76708;SDS011;74360;44.410;0.216;2024-02-28T05:04:52;10.13;;;2.77;;
76708;SDS011;74360;44.410;0.216;2024-02-28T05:10:25;9.63;;;2.43;;
76708;SDS011;74360;44.410;0.216;2024-02-28T05:15:59;8.90;;;2.33;;
76708;SDS011;74360;44.410;0.216;2024-02-28T05:21:31;6.27;;;2.70;;
76708;SDS011;74360;44.410;0.216;2024-02-28T05:27:03;11.47;;;4.83;;
76708;SDS011;74360;44.410;0.216;2024-02-28T05:32:36;10.10;;;5.00;;
76708;SDS011;74360;44.410;0.216;2024-02-28T05:38:08;9.40;;;3.57;;
76708;SDS011;74360;44.410;0.216;2024-02-28T05:43:41;8.40;;;3.23;;
76708;SDS011;74360;44.410;0.216;2024-02-28T05:49:12;9.77;;;3.20;;
76708;SDS011;74360;44.410;0.216;2024-02-28T05:54:48;8.90;;;3.60;;
76708;SDS011;74360;44.410;0.216;2024-02-28T06:00:19;8.70;;;2.90;;
76708;SDS011;74360;44.410;0.216;2024-02-28T06:05:52;11.80;;;3.53;;
76708;SDS011;74360;44.410;0.216;2024-02-28T06:11:24;9.50;;;2.80;;
76708;SDS011;74360;44.410;0.216;2024-02-28T06:16:57;7.77;;;3.37;;
76708;SDS011;74360;44.410;0.216;2024-02-28T06:22:30;6.20;;;2.73;;
76708;SDS011;74360;44.410;0.216;2024-02-28T06:28:03;13.13;;;3.63;;
76708;SDS011;74360;44.410;0.216;2024-02-28T06:33:34;8.53;;;3.53;;
76708;SDS011;74360;44.410;0.216;2024-02-28T06:39:07;7.37;;;2.93;;
76708;SDS011;74360;44.410;0.216;2024-02-28T06:44:39;7.23;;;2.90;;
76708;SDS011;74360;44.410;0.216;2024-02-28T06:50:13;12.23;;;3.57;;
76708;SDS011;74360;44.410;0.216;2024-02-28T06:55:46;13.63;;;5.27;;
76708;SDS011;74360;44.410;0.216;2024-02-28T07:01:19;8.77;;;3.87;;
76708;SDS011;74360;44.410;0.216;2024-02-28T07:06:52;9.13;;;4.20;;
76708;SDS011;74360;44.410;0.216;2024-02-28T07:12:25;9.70;;;3.53;;
76708;SDS011;74360;44.410;0.216;2024-02-28T07:17:57;9.80;;;3.10;;
76708;SDS011;74360;44.410;0.216;2024-02-28T07:23:29;7.50;;;3.37;;
76708;SDS011;74360;44.410;0.216;2024-02-28T07:29:02;11.70;;;3.70;;
76708;SDS011;74360;44.410;0.216;2024-02-28T07:34:35;10.63;;;3.67;;
76708;SDS011;74360;44.410;0.216;2024-02-28T07:40:08;10.77;;;3.33;;
76708;SDS011;74360;44.410;0.216;2024-02-28T07:45:39;10.70;;;3.53;;
76708;SDS011;74360;44.410;0.216;2024-02-28T07:51:13;7.77;;;3.47;;
76708;SDS011;74360;44.410;0.216;2024-02-28T07:56:46;10.37;;;3.73;;
76708;SDS011;74360;44.410;0.216;2024-02-28T08:02:20;11.27;;;3.33;;
76708;SDS011;74360;44.410;0.216;2024-02-28T08:07:50;8.13;;;3.10;;
76708;SDS011;74360;44.410;0.216;2024-02-28T08:13:22;7.60;;;2.93;;
76708;SDS011;74360;44.410;0.216;2024-02-28T08:18:54;11.73;;;3.10;;
76708;SDS011;74360;44.410;0.216;2024-02-28T08:24:26;10.33;;;2.93;;
76708;SDS011;74360;44.410;0.216;2024-02-28T08:29:59;8.10;;;2.70;;
76708;SDS011;74360;44.410;0.216;2024-02-28T08:35:32;8.57;;;2.53;;
76708;SDS011;74360;44.410;0.216;2024-02-28T08:41:06;8.20;;;2.50;;
76708;SDS011;74360;44.410;0.216;2024-02-28T08:46:38;9.00;;;2.60;;
76708;SDS011;74360;44.410;0.216;2024-02-28T08:52:10;9.40;;;2.47;;
76708;SDS011;74360;44.410;0.216;2024-02-28T08:57:42;8.43;;;2.23;;
76708;SDS011;74360;44.410;0.216;2024-02-28T09:03:16;7.47;;;2.50;;
76708;SDS011;74360;44.410;0.216;2024-02-28T09:08:49;7.67;;;2.30;;
76708;SDS011;74360;44.410;0.216;2024-02-28T09:14:22;7.57;;;2.37;;
76708;SDS011;74360;44.410;0.216;2024-02-28T09:19:56;9.70;;;2.53;;
76708;SDS011;74360;44.410;0.216;2024-02-28T09:25:29;9.70;;;2.37;;
76708;SDS011;74360;44.410;0.216;2024-02-28T09:31:01;7.57;;;2.50;;
76708;SDS011;74360;44.410;0.216;2024-02-28T09:36:40;5.97;;;2.00;;
76708;SDS011;74360;44.410;0.216;2024-02-28T09:42:07;6.93;;;2.60;;
76708;SDS011;74360;44.410;0.216;2024-02-28T09:47:39;9.10;;;2.37;;
76708;SDS011;74360;44.410;0.216;2024-02-28T09:53:11;8.00;;;2.17;;
76708;SDS011;74360;44.410;0.216;2024-02-28T09:58:43;6.77;;;2.03;;
76708;SDS011;74360;44.410;0.216;2024-02-28T10:04:16;8.00;;;2.33;;
76708;SDS011;74360;44.410;0.216;2024-02-28T10:09:48;6.50;;;1.80;;
76708;SDS011;74360;44.410;0.216;2024-02-28T10:15:20;6.67;;;2.10;;
76708;SDS011;74360;44.410;0.216;2024-02-28T10:20:53;6.03;;;2.30;;
76708;SDS011;74360;44.410;0.216;2024-02-28T10:26:27;8.40;;;2.30;;
76708;SDS011;74360;44.410;0.216;2024-02-28T10:32:00;7.47;;;2.20;;
76708;SDS011;74360;44.410;0.216;2024-02-28T10:37:32;5.47;;;1.53;;
76708;SDS011;74360;44.410;0.216;2024-02-28T10:43:04;9.77;;;1.53;;
76708;SDS011;74360;44.410;0.216;2024-02-28T10:48:36;7.13;;;1.80;;
76708;SDS011;74360;44.410;0.216;2024-02-28T10:54:11;5.07;;;1.43;;
76708;SDS011;74360;44.410;0.216;2024-02-28T10:59:42;7.40;;;1.50;;
76708;SDS011;74360;44.410;0.216;2024-02-28T11:05:15;6.03;;;1.30;;
76708;SDS011;74360;44.410;0.216;2024-02-28T11:10:54;8.43;;;1.47;;
76708;SDS011;74360;44.410;0.216;2024-02-28T11:16:26;4.40;;;0.97;;
76708;SDS011;74360;44.410;0.216;2024-02-28T11:21:55;4.90;;;1.00;;
76708;SDS011;74360;44.410;0.216;2024-02-28T11:27:27;5.00;;;1.33;;
76708;SDS011;74360;44.410;0.216;2024-02-28T11:32:59;4.03;;;1.10;;
76708;SDS011;74360;44.410;0.216;2024-02-28T11:38:32;6.00;;;1.10;;
76708;SDS011;74360;44.410;0.216;2024-02-28T11:44:03;4.70;;;0.90;;
76708;SDS011;74360;44.410;0.216;2024-02-28T11:55:07;4.30;;;0.90;;
76708;SDS011;74360;44.410;0.216;2024-02-28T12:06:13;4.17;;;0.90;;
76708;SDS011;74360;44.410;0.216;2024-02-28T12:11:45;3.23;;;0.77;;
76708;SDS011;74360;44.410;0.216;2024-02-28T12:17:18;2.93;;;0.80;;
76708;SDS011;74360;44.410;0.216;2024-02-28T12:22:51;2.23;;;0.70;;
76708;SDS011;74360;44.410;0.216;2024-02-28T12:28:23;5.23;;;1.40;;
76708;SDS011;74360;44.410;0.216;2024-02-28T12:33:55;3.47;;;1.00;;
76708;SDS011;74360;44.410;0.216;2024-02-28T12:39:28;4.50;;;1.37;;
76708;SDS011;74360;44.410;0.216;2024-02-28T12:45:02;4.43;;;1.40;;
76708;SDS011;74360;44.410;0.216;2024-02-28T12:50:35;5.03;;;1.50;;
76708;SDS011;74360;44.410;0.216;2024-02-28T12:56:09;4.00;;;1.20;;
76708;SDS011;74360;44.410;0.216;2024-02-28T13:01:41;3.97;;;0.90;;
76708;SDS011;74360;44.410;0.216;2024-02-28T13:07:13;2.43;;;0.90;;
76708;SDS011;74360;44.410;0.216;2024-02-28T13:12:45;3.27;;;1.00;;
76708;SDS011;74360;44.410;0.216;2024-02-28T13:18:17;4.60;;;1.37;;
76708;SDS011;74360;44.410;0.216;2024-02-28T13:23:49;3.13;;;1.00;;
76708;SDS011;74360;44.410;0.216;2024-02-28T13:29:22;4.33;;;1.00;;
76708;SDS011;74360;44.410;0.216;2024-02-28T13:34:54;2.67;;;0.83;;
76708;SDS011;74360;44.410;0.216;2024-02-28T13:40:27;4.90;;;1.20;;
76708;SDS011;74360;44.410;0.216;2024-02-28T13:46:00;4.20;;;1.10;;
76708;SDS011;74360;44.410;0.216;2024-02-28T13:51:31;3.07;;;1.07;;
76708;SDS011;74360;44.410;0.216;2024-02-28T13:57:05;3.60;;;0.97;;
76708;SDS011;74360;44.410;0.216;2024-02-28T14:02:38;3.53;;;1.40;;
76708;SDS011;74360;44.410;0.216;2024-02-28T14:08:12;3.80;;;1.20;;
76708;SDS011;74360;44.410;0.216;2024-02-28T14:13:43;2.83;;;0.80;;
76708;SDS011;74360;44.410;0.216;2024-02-28T14:19:15;2.03;;;0.70;;
76708;SDS011;74360;44.410;0.216;2024-02-28T14:24:48;1.87;;;0.60;;
76708;SDS011;74360;44.410;0.216;2024-02-28T14:30:21;2.57;;;0.57;;
76708;SDS011;74360;44.410;0.216;2024-02-28T14:46:58;2.53;;;0.70;;
76708;SDS011;74360;44.410;0.216;2024-02-28T14:52:30;1.73;;;0.60;;
76708;SDS011;74360;44.410;0.216;2024-02-28T14:58:04;3.00;;;0.50;;
76708;SDS011;74360;44.410;0.216;2024-02-28T15:03:37;1.93;;;0.50;;
76708;SDS011;74360;44.410;0.216;2024-02-28T15:09:09;2.47;;;0.50;;
76708;SDS011;74360;44.410;0.216;2024-02-28T15:14:43;2.00;;;0.50;;
76708;SDS011;74360;44.410;0.216;2024-02-28T15:20:15;3.23;;;0.77;;
76708;SDS011;74360;44.410;0.216;2024-02-28T15:25:48;5.73;;;2.63;;
76708;SDS011;74360;44.410;0.216;2024-02-28T15:31:19;3.50;;;1.10;;
76708;SDS011;74360;44.410;0.216;2024-02-28T15:36:52;2.77;;;0.73;;
76708;SDS011;74360;44.410;0.216;2024-02-28T15:42:25;4.10;;;0.90;;
76708;SDS011;74360;44.410;0.216;2024-02-28T15:47:59;3.13;;;0.87;;
76708;SDS011;74360;44.410;0.216;2024-02-28T15:53:31;3.67;;;0.70;;
76708;SDS011;74360;44.410;0.216;2024-02-28T15:59:05;7.10;;;1.30;;
76708;SDS011;74360;44.410;0.216;2024-02-28T16:04:35;4.27;;;1.10;;
76708;SDS011;74360;44.410;0.216;2024-02-28T16:10:07;4.10;;;1.20;;
76708;SDS011;74360;44.410;0.216;2024-02-28T16:15:40;3.37;;;0.90;;
76708;SDS011;74360;44.410;0.216;2024-02-28T16:21:13;3.33;;;0.80;;
76708;SDS011;74360;44.410;0.216;2024-02-28T16:26:44;4.37;;;0.90;;
76708;SDS011;74360;44.410;0.216;2024-02-28T16:32:16;4.80;;;0.93;;
76708;SDS011;74360;44.410;0.216;2024-02-28T16:37:49;4.67;;;1.20;;
76708;SDS011;74360;44.410;0.216;2024-02-28T16:43:21;6.93;;;1.00;;
76708;SDS011;74360;44.410;0.216;2024-02-28T16:48:54;6.50;;;1.60;;
76708;SDS011;74360;44.410;0.216;2024-02-28T16:54:26;7.50;;;2.13;;
76708;SDS011;74360;44.410;0.216;2024-02-28T16:59:58;4.10;;;1.33;;
76708;SDS011;74360;44.410;0.216;2024-02-28T17:05:33;5.43;;;1.47;;
76708;SDS011;74360;44.410;0.216;2024-02-28T17:11:02;5.93;;;1.53;;
76708;SDS011;74360;44.410;0.216;2024-02-28T17:16:35;4.77;;;1.40;;
76708;SDS011;74360;44.410;0.216;2024-02-28T17:22:08;6.27;;;2.00;;
76708;SDS011;74360;44.410;0.216;2024-02-28T17:27:42;7.30;;;2.83;;
76708;SDS011;74360;44.410;0.216;2024-02-28T17:33:13;10.33;;;2.90;;
76708;SDS011;74360;44.410;0.216;2024-02-28T17:38:45;7.33;;;3.47;;
76708;SDS011;74360;44.410;0.216;2024-02-28T17:44:16;6.90;;;2.33;;
76708;SDS011;74360;44.410;0.216;2024-02-28T17:49:50;6.77;;;2.50;;
76708;SDS011;74360;44.410;0.216;2024-02-28T17:55:22;8.47;;;3.03;;
76708;SDS011;74360;44.410;0.216;2024-02-28T18:00:58;7.27;;;2.33;;
76708;SDS011;74360;44.410;0.216;2024-02-28T18:06:28;9.13;;;3.43;;
76708;SDS011;74360;44.410;0.216;2024-02-28T18:12:01;8.73;;;3.37;;
76708;SDS011;74360;44.410;0.216;2024-02-28T18:17:33;11.20;;;3.53;;
76708;SDS011;74360;44.410;0.216;2024-02-28T18:28:38;17.50;;;9.53;;
76708;SDS011;74360;44.410;0.216;2024-02-28T18:34:12;15.43;;;8.23;;
76708;SDS011;74360;44.410;0.216;2024-02-28T18:45:18;15.17;;;6.97;;
76708;SDS011;74360;44.410;0.216;2024-02-28T18:50:50;7.50;;;3.47;;
76708;SDS011;74360;44.410;0.216;2024-02-28T18:56:23;8.10;;;4.10;;
76708;SDS011;74360;44.410;0.216;2024-02-28T19:01:56;10.47;;;4.47;;
76708;SDS011;74360;44.410;0.216;2024-02-28T19:07:29;8.57;;;3.87;;
76708;SDS011;74360;44.410;0.216;2024-02-28T19:13:02;6.80;;;2.53;;
76708;SDS011;74360;44.410;0.216;2024-02-28T19:18:38;8.40;;;2.47;;
76708;SDS011;74360;44.410;0.216;2024-02-28T19:24:07;8.07;;;2.40;;
76708;SDS011;74360;44.410;0.216;2024-02-28T19:29:40;8.37;;;3.40;;
76708;SDS011;74360;44.410;0.216;2024-02-28T19:35:12;5.83;;;2.37;;
76708;SDS011;74360;44.410;0.216;2024-02-28T19:40:45;8.10;;;2.90;;
76708;SDS011;74360;44.410;0.216;2024-02-28T19:46:17;7.33;;;3.17;;
76708;SDS011;74360;44.410;0.216;2024-02-28T19:51:50;10.27;;;3.63;;
76708;SDS011;74360;44.410;0.216;2024-02-28T19:57:23;10.73;;;4.23;;
76708;SDS011;74360;44.410;0.216;2024-02-28T20:02:56;33.53;;;18.67;;
76708;SDS011;74360;44.410;0.216;2024-02-28T20:08:29;18.50;;;10.20;;
76708;SDS011;74360;44.410;0.216;2024-02-28T20:14:04;20.97;;;11.40;;
76708;SDS011;74360;44.410;0.216;2024-02-28T20:19:36;16.40;;;7.87;;
76708;SDS011;74360;44.410;0.216;2024-02-28T20:25:08;11.93;;;4.10;;
76708;SDS011;74360;44.410;0.216;2024-02-28T20:30:40;9.87;;;4.27;;
76708;SDS011;74360;44.410;0.216;2024-02-28T20:36:13;10.57;;;5.07;;
76708;SDS011;74360;44.410;0.216;2024-02-28T20:41:45;13.47;;;7.53;;
76708;SDS011;74360;44.410;0.216;2024-02-28T20:47:16;22.67;;;12.30;;
76708;SDS011;74360;44.410;0.216;2024-02-28T20:52:50;9.40;;;3.77;;
76708;SDS011;74360;44.410;0.216;2024-02-28T20:58:23;9.53;;;4.53;;
76708;SDS011;74360;44.410;0.216;2024-02-28T21:03:55;13.67;;;7.73;;
76708;SDS011;74360;44.410;0.216;2024-02-28T21:09:27;11.03;;;5.93;;
76708;SDS011;74360;44.410;0.216;2024-02-28T21:15:04;10.77;;;5.20;;
76708;SDS011;74360;44.410;0.216;2024-02-28T21:20:32;8.93;;;5.33;;
76708;SDS011;74360;44.410;0.216;2024-02-28T21:26:04;10.73;;;6.77;;
76708;SDS011;74360;44.410;0.216;2024-02-28T21:31:36;10.23;;;5.53;;
76708;SDS011;74360;44.410;0.216;2024-02-28T21:37:10;9.87;;;3.20;;
76708;SDS011;74360;44.410;0.216;2024-02-28T21:42:42;9.63;;;3.60;;
76708;SDS011;74360;44.410;0.216;2024-02-28T21:48:14;7.90;;;2.70;;
76708;SDS011;74360;44.410;0.216;2024-02-28T21:53:47;14.90;;;7.47;;
76708;SDS011;74360;44.410;0.216;2024-02-28T21:59:21;14.17;;;7.13;;
76708;SDS011;74360;44.410;0.216;2024-02-28T22:04:52;11.47;;;4.43;;
76708;SDS011;74360;44.410;0.216;2024-02-28T22:10:25;13.33;;;3.33;;
76708;SDS011;74360;44.410;0.216;2024-02-28T22:15:58;6.97;;;3.10;;
76708;SDS011;74360;44.410;0.216;2024-02-28T22:21:30;8.67;;;3.47;;
76708;SDS011;74360;44.410;0.216;2024-02-28T22:32:37;13.03;;;6.20;;
76708;SDS011;74360;44.410;0.216;2024-02-28T22:38:09;23.80;;;11.43;;
76708;SDS011;74360;44.410;0.216;2024-02-28T22:43:43;7.33;;;3.27;;
76708;SDS011;74360;44.410;0.216;2024-02-28T22:49:15;11.70;;;4.90;;
76708;SDS011;74360;44.410;0.216;2024-02-28T22:54:49;9.67;;;4.50;;
76708;SDS011;74360;44.410;0.216;2024-02-28T23:44:45;9.03;;;4.90;;
76708;SDS011;74360;44.410;0.216;2024-02-28T23:50:18;18.40;;;7.33;;
76708;SDS011;74360;44.410;0.216;2024-02-28T23:55:52;28.10;;;6.17;;
